sensor_id;sensor_type;location;lat;lon;timestamp;P1;durP1;ratioP1;P2;durP2;ratioP2
39974;SDS011;25652;52.852;6.602;2024-01-30T00:01:46;11.23;;;10.13;;
39974;SDS011;25652;52.852;6.602;2024-01-30T00:04:11;10.93;;;9.83;;
39974;SDS011;25652;52.852;6.602;2024-01-30T00:06:37;11.17;;;9.97;;
39974;SDS011;25652;52.852;6.602;2024-01-30T00:09:02;11.63;;;9.63;;
39974;SDS011;25652;52.852;6.602;2024-01-30T00:11:28;10.93;;;9.83;;
39974;SDS011;25652;52.852;6.602;2024-01-30T00:13:53;10.73;;;9.73;;
39974;SDS011;25652;52.852;6.602;2024-01-30T00:16:22;11.07;;;9.98;;
39974;SDS011;25652;52.852;6.602;2024-01-30T00:18:48;10.98;;;9.98;;
39974;SDS011;25652;52.852;6.602;2024-01-30T00:21:13;10.37;;;9.27;;
39974;SDS011;25652;52.852;6.602;2024-01-30T00:23:39;10.82;;;9.73;;
39974;SDS011;25652;52.852;6.602;2024-01-30T00:26:04;10.97;;;9.83;;
39974;SDS011;25652;52.852;6.602;2024-01-30T00:28:30;10.13;;;9.13;;
39974;SDS011;25652;52.852;6.602;2024-01-30T00:30:55;11.00;;;9.88;;
39974;SDS011;25652;52.852;6.602;2024-01-30T00:33:21;11.13;;;9.93;;
39974;SDS011;25652;52.852;6.602;2024-01-30T00:35:46;10.67;;;9.67;;
39974;SDS011;25652;52.852;6.602;2024-01-30T00:38:12;10.88;;;9.85;;
39974;SDS011;25652;52.852;6.602;2024-01-30T00:40:37;10.43;;;9.43;;
39974;SDS011;25652;52.852;6.602;2024-01-30T00:43:03;10.77;;;9.70;;
39974;SDS011;25652;52.852;6.602;2024-01-30T00:45:28;10.55;;;9.55;;
39974;SDS011;25652;52.852;6.602;2024-01-30T00:47:54;11.37;;;10.27;;
39974;SDS011;25652;52.852;6.602;2024-01-30T00:50:19;10.60;;;9.60;;
39974;SDS011;25652;52.852;6.602;2024-01-30T00:52:45;11.13;;;10.00;;
39974;SDS011;25652;52.852;6.602;2024-01-30T00:55:10;10.30;;;9.30;;
39974;SDS011;25652;52.852;6.602;2024-01-30T00:57:36;10.63;;;9.63;;
39974;SDS011;25652;52.852;6.602;2024-01-30T01:00:02;10.80;;;9.80;;
39974;SDS011;25652;52.852;6.602;2024-01-30T01:02:28;11.27;;;10.18;;
39974;SDS011;25652;52.852;6.602;2024-01-30T01:04:54;10.82;;;9.73;;
39974;SDS011;25652;52.852;6.602;2024-01-30T01:07:19;10.83;;;9.73;;
39974;SDS011;25652;52.852;6.602;2024-01-30T01:09:44;10.97;;;9.87;;
39974;SDS011;25652;52.852;6.602;2024-01-30T01:12:10;10.77;;;9.75;;
39974;SDS011;25652;52.852;6.602;2024-01-30T01:14:35;12.97;;;9.77;;
39974;SDS011;25652;52.852;6.602;2024-01-30T01:17:01;11.43;;;9.70;;
39974;SDS011;25652;52.852;6.602;2024-01-30T01:19:26;11.02;;;9.93;;
39974;SDS011;25652;52.852;6.602;2024-01-30T01:21:52;10.90;;;9.80;;
39974;SDS011;25652;52.852;6.602;2024-01-30T01:24:17;10.03;;;9.00;;
39974;SDS011;25652;52.852;6.602;2024-01-30T01:26:43;10.32;;;9.25;;
39974;SDS011;25652;52.852;6.602;2024-01-30T01:29:08;10.77;;;9.73;;
39974;SDS011;25652;52.852;6.602;2024-01-30T01:31:34;10.80;;;9.70;;
39974;SDS011;25652;52.852;6.602;2024-01-30T01:33:59;10.77;;;9.63;;
39974;SDS011;25652;52.852;6.602;2024-01-30T01:36:25;10.63;;;9.53;;
39974;SDS011;25652;52.852;6.602;2024-01-30T01:38:50;10.50;;;9.50;;
39974;SDS011;25652;52.852;6.602;2024-01-30T01:41:16;10.25;;;9.15;;
39974;SDS011;25652;52.852;6.602;2024-01-30T01:43:41;11.87;;;9.50;;
39974;SDS011;25652;52.852;6.602;2024-01-30T01:46:07;11.17;;;10.00;;
39974;SDS011;25652;52.852;6.602;2024-01-30T01:48:33;10.55;;;9.45;;
39974;SDS011;25652;52.852;6.602;2024-01-30T01:50:59;10.80;;;9.70;;
39974;SDS011;25652;52.852;6.602;2024-01-30T01:53:25;10.40;;;9.30;;
39974;SDS011;25652;52.852;6.602;2024-01-30T01:55:51;10.75;;;9.70;;
39974;SDS011;25652;52.852;6.602;2024-01-30T01:58:17;9.80;;;8.80;;
39974;SDS011;25652;52.852;6.602;2024-01-30T02:00:44;10.65;;;9.55;;
39974;SDS011;25652;52.852;6.602;2024-01-30T02:03:10;10.50;;;9.40;;
39974;SDS011;25652;52.852;6.602;2024-01-30T02:05:36;10.80;;;9.70;;
39974;SDS011;25652;52.852;6.602;2024-01-30T02:08:02;10.10;;;9.07;;
39974;SDS011;25652;52.852;6.602;2024-01-30T02:10:27;11.30;;;9.73;;
39974;SDS011;25652;52.852;6.602;2024-01-30T02:12:53;10.93;;;8.97;;
39974;SDS011;25652;52.852;6.602;2024-01-30T02:15:18;10.73;;;9.63;;
39974;SDS011;25652;52.852;6.602;2024-01-30T02:17:44;10.75;;;9.73;;
39974;SDS011;25652;52.852;6.602;2024-01-30T02:20:09;10.87;;;9.80;;
39974;SDS011;25652;52.852;6.602;2024-01-30T02:22:35;10.33;;;9.23;;
39974;SDS011;25652;52.852;6.602;2024-01-30T02:25:02;10.20;;;9.00;;
39974;SDS011;25652;52.852;6.602;2024-01-30T02:27:28;11.27;;;9.70;;
39974;SDS011;25652;52.852;6.602;2024-01-30T02:29:53;10.27;;;9.23;;
39974;SDS011;25652;52.852;6.602;2024-01-30T02:32:18;11.88;;;9.77;;
39974;SDS011;25652;52.852;6.602;2024-01-30T02:34:44;11.10;;;9.97;;
39974;SDS011;25652;52.852;6.602;2024-01-30T02:37:09;11.07;;;9.97;;
39974;SDS011;25652;52.852;6.602;2024-01-30T02:39:35;11.30;;;10.13;;
39974;SDS011;25652;52.852;6.602;2024-01-30T02:42:00;10.73;;;9.67;;
39974;SDS011;25652;52.852;6.602;2024-01-30T02:44:26;14.97;;;10.07;;
39974;SDS011;25652;52.852;6.602;2024-01-30T02:46:51;10.90;;;9.73;;
39974;SDS011;25652;52.852;6.602;2024-01-30T02:49:17;10.47;;;9.43;;
39974;SDS011;25652;52.852;6.602;2024-01-30T02:51:42;11.13;;;10.02;;
39974;SDS011;25652;52.852;6.602;2024-01-30T02:54:08;11.48;;;10.23;;
39974;SDS011;25652;52.852;6.602;2024-01-30T02:56:33;10.70;;;9.60;;
39974;SDS011;25652;52.852;6.602;2024-01-30T02:58:59;11.63;;;10.43;;
39974;SDS011;25652;52.852;6.602;2024-01-30T03:01:24;12.15;;;10.25;;
39974;SDS011;25652;52.852;6.602;2024-01-30T03:03:50;11.30;;;10.10;;
39974;SDS011;25652;52.852;6.602;2024-01-30T03:06:15;11.27;;;10.07;;
39974;SDS011;25652;52.852;6.602;2024-01-30T03:08:41;11.52;;;10.32;;
39974;SDS011;25652;52.852;6.602;2024-01-30T03:11:06;10.70;;;9.60;;
39974;SDS011;25652;52.852;6.602;2024-01-30T03:13:32;10.93;;;9.83;;
39974;SDS011;25652;52.852;6.602;2024-01-30T03:15:57;11.27;;;10.07;;
39974;SDS011;25652;52.852;6.602;2024-01-30T03:18:22;12.10;;;10.50;;
39974;SDS011;25652;52.852;6.602;2024-01-30T03:20:48;12.47;;;10.53;;
39974;SDS011;25652;52.852;6.602;2024-01-30T03:23:13;11.40;;;10.20;;
39974;SDS011;25652;52.852;6.602;2024-01-30T03:25:39;11.40;;;10.20;;
39974;SDS011;25652;52.852;6.602;2024-01-30T03:28:04;10.93;;;9.80;;
39974;SDS011;25652;52.852;6.602;2024-01-30T03:30:30;10.85;;;9.75;;
39974;SDS011;25652;52.852;6.602;2024-01-30T03:32:56;10.77;;;9.68;;
39974;SDS011;25652;52.852;6.602;2024-01-30T03:35:21;10.73;;;9.63;;
39974;SDS011;25652;52.852;6.602;2024-01-30T03:37:46;10.57;;;9.48;;
39974;SDS011;25652;52.852;6.602;2024-01-30T03:40:12;11.30;;;10.13;;
39974;SDS011;25652;52.852;6.602;2024-01-30T03:42:38;11.13;;;9.87;;
39974;SDS011;25652;52.852;6.602;2024-01-30T03:45:03;11.13;;;9.93;;
39974;SDS011;25652;52.852;6.602;2024-01-30T03:47:29;12.13;;;10.65;;
39974;SDS011;25652;52.852;6.602;2024-01-30T03:49:55;11.60;;;10.13;;
39974;SDS011;25652;52.852;6.602;2024-01-30T03:52:20;11.02;;;9.93;;
39974;SDS011;25652;52.852;6.602;2024-01-30T03:54:46;12.00;;;10.50;;
39974;SDS011;25652;52.852;6.602;2024-01-30T03:57:11;11.80;;;10.60;;
39974;SDS011;25652;52.852;6.602;2024-01-30T03:59:36;11.18;;;9.98;;
39974;SDS011;25652;52.852;6.602;2024-01-30T04:02:02;11.10;;;9.90;;
39974;SDS011;25652;52.852;6.602;2024-01-30T04:04:28;12.13;;;10.47;;
39974;SDS011;25652;52.852;6.602;2024-01-30T04:06:53;11.57;;;10.38;;
39974;SDS011;25652;52.852;6.602;2024-01-30T04:09:19;11.38;;;10.20;;
39974;SDS011;25652;52.852;6.602;2024-01-30T04:11:44;11.97;;;10.20;;
39974;SDS011;25652;52.852;6.602;2024-01-30T04:14:10;11.60;;;10.37;;
39974;SDS011;25652;52.852;6.602;2024-01-30T04:16:36;11.52;;;10.32;;
39974;SDS011;25652;52.852;6.602;2024-01-30T04:19:01;11.93;;;10.57;;
39974;SDS011;25652;52.852;6.602;2024-01-30T04:21:27;11.30;;;9.73;;
39974;SDS011;25652;52.852;6.602;2024-01-30T04:23:52;11.70;;;10.17;;
39974;SDS011;25652;52.852;6.602;2024-01-30T04:26:18;12.43;;;10.17;;
39974;SDS011;25652;52.852;6.602;2024-01-30T04:28:44;10.83;;;9.70;;
39974;SDS011;25652;52.852;6.602;2024-01-30T04:31:10;11.20;;;10.00;;
39974;SDS011;25652;52.852;6.602;2024-01-30T04:33:36;11.63;;;10.43;;
39974;SDS011;25652;52.852;6.602;2024-01-30T04:36:01;11.73;;;10.52;;
39974;SDS011;25652;52.852;6.602;2024-01-30T04:38:27;11.73;;;10.53;;
39974;SDS011;25652;52.852;6.602;2024-01-30T04:40:53;11.43;;;10.23;;
39974;SDS011;25652;52.852;6.602;2024-01-30T04:43:18;12.30;;;10.37;;
39974;SDS011;25652;52.852;6.602;2024-01-30T04:45:44;13.13;;;11.20;;
39974;SDS011;25652;52.852;6.602;2024-01-30T04:48:09;11.70;;;10.50;;
39974;SDS011;25652;52.852;6.602;2024-01-30T04:50:34;12.88;;;10.90;;
39974;SDS011;25652;52.852;6.602;2024-01-30T04:53:00;11.43;;;10.23;;
39974;SDS011;25652;52.852;6.602;2024-01-30T04:55:25;12.33;;;10.67;;
39974;SDS011;25652;52.852;6.602;2024-01-30T04:57:51;12.35;;;11.05;;
39974;SDS011;25652;52.852;6.602;2024-01-30T05:00:16;11.60;;;10.40;;
39974;SDS011;25652;52.852;6.602;2024-01-30T05:02:42;11.73;;;10.53;;
39974;SDS011;25652;52.852;6.602;2024-01-30T05:05:07;11.75;;;10.55;;
39974;SDS011;25652;52.852;6.602;2024-01-30T05:07:33;11.98;;;10.77;;
39974;SDS011;25652;52.852;6.602;2024-01-30T05:09:59;10.90;;;9.80;;
39974;SDS011;25652;52.852;6.602;2024-01-30T05:12:24;11.57;;;10.37;;
39974;SDS011;25652;52.852;6.602;2024-01-30T05:14:50;10.90;;;9.85;;
39974;SDS011;25652;52.852;6.602;2024-01-30T05:17:15;11.77;;;10.57;;
39974;SDS011;25652;52.852;6.602;2024-01-30T05:19:42;13.50;;;10.87;;
39974;SDS011;25652;52.852;6.602;2024-01-30T05:22:08;11.77;;;10.43;;
39974;SDS011;25652;52.852;6.602;2024-01-30T05:24:33;11.30;;;10.20;;
39974;SDS011;25652;52.852;6.602;2024-01-30T05:27:00;12.60;;;10.38;;
39974;SDS011;25652;52.852;6.602;2024-01-30T05:29:26;12.80;;;11.40;;
39974;SDS011;25652;52.852;6.602;2024-01-30T05:31:52;13.05;;;11.13;;
39974;SDS011;25652;52.852;6.602;2024-01-30T05:34:17;12.23;;;10.97;;
39974;SDS011;25652;52.852;6.602;2024-01-30T05:36:43;12.30;;;11.00;;
39974;SDS011;25652;52.852;6.602;2024-01-30T05:39:08;11.03;;;9.93;;
39974;SDS011;25652;52.852;6.602;2024-01-30T05:41:34;18.40;;;10.70;;
39974;SDS011;25652;52.852;6.602;2024-01-30T05:43:59;11.75;;;10.65;;
39974;SDS011;25652;52.852;6.602;2024-01-30T05:46:25;12.73;;;11.23;;
39974;SDS011;25652;52.852;6.602;2024-01-30T05:48:50;13.50;;;12.10;;
39974;SDS011;25652;52.852;6.602;2024-01-30T05:51:16;12.93;;;11.57;;
39974;SDS011;25652;52.852;6.602;2024-01-30T05:53:41;12.37;;;11.13;;
39974;SDS011;25652;52.852;6.602;2024-01-30T05:56:06;12.50;;;11.13;;
39974;SDS011;25652;52.852;6.602;2024-01-30T05:58:32;12.97;;;11.50;;
39974;SDS011;25652;52.852;6.602;2024-01-30T06:00:57;13.17;;;11.10;;
39974;SDS011;25652;52.852;6.602;2024-01-30T06:03:23;12.43;;;11.13;;
39974;SDS011;25652;52.852;6.602;2024-01-30T06:05:49;12.17;;;10.97;;
39974;SDS011;25652;52.852;6.602;2024-01-30T06:08:14;12.83;;;11.50;;
39974;SDS011;25652;52.852;6.602;2024-01-30T06:10:39;12.23;;;10.98;;
39974;SDS011;25652;52.852;6.602;2024-01-30T06:13:05;12.20;;;11.00;;
39974;SDS011;25652;52.852;6.602;2024-01-30T06:15:31;13.13;;;11.80;;
39974;SDS011;25652;52.852;6.602;2024-01-30T06:17:56;12.73;;;11.43;;
39974;SDS011;25652;52.852;6.602;2024-01-30T06:20:22;12.90;;;11.57;;
39974;SDS011;25652;52.852;6.602;2024-01-30T06:22:47;12.70;;;11.40;;
39974;SDS011;25652;52.852;6.602;2024-01-30T06:25:13;12.40;;;11.10;;
39974;SDS011;25652;52.852;6.602;2024-01-30T06:27:38;11.70;;;10.50;;
39974;SDS011;25652;52.852;6.602;2024-01-30T06:30:04;10.40;;;9.30;;
39974;SDS011;25652;52.852;6.602;2024-01-30T06:32:30;9.80;;;8.80;;
39974;SDS011;25652;52.852;6.602;2024-01-30T06:34:55;8.93;;;8.07;;
39974;SDS011;25652;52.852;6.602;2024-01-30T06:37:21;9.83;;;8.83;;
39974;SDS011;25652;52.852;6.602;2024-01-30T06:39:46;10.13;;;9.13;;
39974;SDS011;25652;52.852;6.602;2024-01-30T06:42:12;10.53;;;9.40;;
39974;SDS011;25652;52.852;6.602;2024-01-30T06:44:37;10.55;;;9.45;;
39974;SDS011;25652;52.852;6.602;2024-01-30T06:47:03;13.93;;;10.03;;
39974;SDS011;25652;52.852;6.602;2024-01-30T06:49:28;11.47;;;9.80;;
39974;SDS011;25652;52.852;6.602;2024-01-30T06:51:54;9.40;;;8.43;;
39974;SDS011;25652;52.852;6.602;2024-01-30T06:54:19;10.10;;;9.13;;
39974;SDS011;25652;52.852;6.602;2024-01-30T06:56:45;10.73;;;9.60;;
39974;SDS011;25652;52.852;6.602;2024-01-30T06:59:10;10.93;;;9.70;;
39974;SDS011;25652;52.852;6.602;2024-01-30T07:01:36;10.97;;;9.53;;
39974;SDS011;25652;52.852;6.602;2024-01-30T07:04:01;10.97;;;9.57;;
39974;SDS011;25652;52.852;6.602;2024-01-30T07:06:27;11.27;;;10.02;;
39974;SDS011;25652;52.852;6.602;2024-01-30T07:08:52;10.67;;;9.57;;
39974;SDS011;25652;52.852;6.602;2024-01-30T07:11:20;10.63;;;9.53;;
39974;SDS011;25652;52.852;6.602;2024-01-30T07:13:46;11.95;;;9.48;;
39974;SDS011;25652;52.852;6.602;2024-01-30T07:16:11;10.60;;;9.60;;
39974;SDS011;25652;52.852;6.602;2024-01-30T07:18:37;12.73;;;10.20;;
39974;SDS011;25652;52.852;6.602;2024-01-30T07:21:03;11.85;;;10.00;;
39974;SDS011;25652;52.852;6.602;2024-01-30T07:23:28;12.40;;;10.18;;
39974;SDS011;25652;52.852;6.602;2024-01-30T07:25:54;11.50;;;10.30;;
39974;SDS011;25652;52.852;6.602;2024-01-30T07:28:19;11.50;;;8.83;;
39974;SDS011;25652;52.852;6.602;2024-01-30T07:30:45;9.88;;;8.88;;
39974;SDS011;25652;52.852;6.602;2024-01-30T07:33:10;11.07;;;8.80;;
39974;SDS011;25652;52.852;6.602;2024-01-30T07:35:36;11.70;;;10.07;;
39974;SDS011;25652;52.852;6.602;2024-01-30T07:38:01;9.75;;;8.73;;
39974;SDS011;25652;52.852;6.602;2024-01-30T07:40:27;10.57;;;9.48;;
39974;SDS011;25652;52.852;6.602;2024-01-30T07:42:53;9.77;;;8.77;;
39974;SDS011;25652;52.852;6.602;2024-01-30T07:45:19;10.88;;;9.43;;
39974;SDS011;25652;52.852;6.602;2024-01-30T07:47:44;9.50;;;8.60;;
39974;SDS011;25652;52.852;6.602;2024-01-30T07:50:10;10.10;;;9.13;;
39974;SDS011;25652;52.852;6.602;2024-01-30T07:52:35;10.30;;;9.30;;
39974;SDS011;25652;52.852;6.602;2024-01-30T07:55:01;9.73;;;8.73;;
39974;SDS011;25652;52.852;6.602;2024-01-30T07:57:26;10.00;;;9.05;;
39974;SDS011;25652;52.852;6.602;2024-01-30T07:59:52;9.52;;;8.52;;
39974;SDS011;25652;52.852;6.602;2024-01-30T08:02:17;10.67;;;9.20;;
39974;SDS011;25652;52.852;6.602;2024-01-30T08:04:43;9.40;;;8.50;;
39974;SDS011;25652;52.852;6.602;2024-01-30T08:07:08;10.35;;;9.25;;
39974;SDS011;25652;52.852;6.602;2024-01-30T08:09:34;11.30;;;9.17;;
39974;SDS011;25652;52.852;6.602;2024-01-30T08:11:59;9.70;;;8.73;;
39974;SDS011;25652;52.852;6.602;2024-01-30T08:14:25;10.00;;;8.87;;
39974;SDS011;25652;52.852;6.602;2024-01-30T08:16:50;10.67;;;9.57;;
39974;SDS011;25652;52.852;6.602;2024-01-30T08:19:16;10.52;;;9.43;;
39974;SDS011;25652;52.852;6.602;2024-01-30T08:21:41;9.63;;;8.67;;
39974;SDS011;25652;52.852;6.602;2024-01-30T08:24:07;10.07;;;9.07;;
39974;SDS011;25652;52.852;6.602;2024-01-30T08:26:34;9.68;;;8.70;;
39974;SDS011;25652;52.852;6.602;2024-01-30T08:29:00;10.23;;;9.23;;
39974;SDS011;25652;52.852;6.602;2024-01-30T08:31:26;10.10;;;9.07;;
39974;SDS011;25652;52.852;6.602;2024-01-30T08:33:52;9.90;;;8.90;;
39974;SDS011;25652;52.852;6.602;2024-01-30T08:36:17;10.60;;;8.60;;
39974;SDS011;25652;52.852;6.602;2024-01-30T08:38:43;10.13;;;9.07;;
39974;SDS011;25652;52.852;6.602;2024-01-30T08:41:08;9.73;;;8.47;;
39974;SDS011;25652;52.852;6.602;2024-01-30T08:43:34;9.60;;;8.65;;
39974;SDS011;25652;52.852;6.602;2024-01-30T08:46:00;9.80;;;8.73;;
39974;SDS011;25652;52.852;6.602;2024-01-30T08:48:25;10.70;;;9.60;;
39974;SDS011;25652;52.852;6.602;2024-01-30T08:50:51;9.80;;;8.80;;
39974;SDS011;25652;52.852;6.602;2024-01-30T08:53:17;9.77;;;8.77;;
39974;SDS011;25652;52.852;6.602;2024-01-30T08:55:42;9.70;;;8.70;;
39974;SDS011;25652;52.852;6.602;2024-01-30T08:58:08;10.95;;;8.98;;
39974;SDS011;25652;52.852;6.602;2024-01-30T09:00:33;11.30;;;10.10;;
39974;SDS011;25652;52.852;6.602;2024-01-30T09:02:59;10.03;;;9.03;;
39974;SDS011;25652;52.852;6.602;2024-01-30T09:05:24;11.48;;;8.88;;
39974;SDS011;25652;52.852;6.602;2024-01-30T09:07:50;10.70;;;9.60;;
39974;SDS011;25652;52.852;6.602;2024-01-30T09:10:15;10.63;;;9.18;;
39974;SDS011;25652;52.852;6.602;2024-01-30T09:12:41;10.40;;;9.40;;
39974;SDS011;25652;52.852;6.602;2024-01-30T09:15:07;9.90;;;8.90;;
39974;SDS011;25652;52.852;6.602;2024-01-30T09:17:32;10.30;;;8.87;;
39974;SDS011;25652;52.852;6.602;2024-01-30T09:19:58;9.53;;;8.50;;
39974;SDS011;25652;52.852;6.602;2024-01-30T09:22:24;11.02;;;9.40;;
39974;SDS011;25652;52.852;6.602;2024-01-30T09:24:49;9.95;;;8.95;;
39974;SDS011;25652;52.852;6.602;2024-01-30T09:27:15;11.57;;;9.87;;
39974;SDS011;25652;52.852;6.602;2024-01-30T09:29:40;10.57;;;9.47;;
39974;SDS011;25652;52.852;6.602;2024-01-30T09:32:06;11.23;;;10.02;;
39974;SDS011;25652;52.852;6.602;2024-01-30T09:34:31;10.20;;;9.20;;
39974;SDS011;25652;52.852;6.602;2024-01-30T09:36:57;10.63;;;9.53;;
39974;SDS011;25652;52.852;6.602;2024-01-30T09:39:26;10.50;;;9.40;;
39974;SDS011;25652;52.852;6.602;2024-01-30T09:41:55;11.20;;;10.00;;
39974;SDS011;25652;52.852;6.602;2024-01-30T09:44:32;10.82;;;9.73;;
39974;SDS011;25652;52.852;6.602;2024-01-30T09:47:00;9.63;;;8.57;;
39974;SDS011;25652;52.852;6.602;2024-01-30T09:49:25;10.97;;;9.20;;
39974;SDS011;25652;52.852;6.602;2024-01-30T09:51:51;10.80;;;9.70;;
39974;SDS011;25652;52.852;6.602;2024-01-30T09:54:17;10.60;;;9.18;;
39974;SDS011;25652;52.852;6.602;2024-01-30T09:56:44;12.88;;;9.82;;
39974;SDS011;25652;52.852;6.602;2024-01-30T09:59:10;9.97;;;8.97;;
39974;SDS011;25652;52.852;6.602;2024-01-30T10:01:35;10.90;;;9.67;;
39974;SDS011;25652;52.852;6.602;2024-01-30T10:04:01;11.55;;;9.73;;
39974;SDS011;25652;52.852;6.602;2024-01-30T10:06:27;10.48;;;9.45;;
39974;SDS011;25652;52.852;6.602;2024-01-30T10:08:53;11.30;;;10.18;;
39974;SDS011;25652;52.852;6.602;2024-01-30T10:11:18;11.07;;;9.55;;
39974;SDS011;25652;52.852;6.602;2024-01-30T10:13:43;12.67;;;9.83;;
39974;SDS011;25652;52.852;6.602;2024-01-30T10:16:09;10.90;;;9.70;;
39974;SDS011;25652;52.852;6.602;2024-01-30T10:18:34;10.80;;;9.17;;
39974;SDS011;25652;52.852;6.602;2024-01-30T10:21:00;10.47;;;9.37;;
39974;SDS011;25652;52.852;6.602;2024-01-30T10:23:26;10.88;;;9.63;;
39974;SDS011;25652;52.852;6.602;2024-01-30T10:25:51;12.00;;;9.60;;
39974;SDS011;25652;52.852;6.602;2024-01-30T10:28:17;11.37;;;9.30;;
39974;SDS011;25652;52.852;6.602;2024-01-30T10:30:42;9.63;;;8.63;;
39974;SDS011;25652;52.852;6.602;2024-01-30T10:33:08;10.70;;;9.23;;
39974;SDS011;25652;52.852;6.602;2024-01-30T10:35:34;10.45;;;9.07;;
39974;SDS011;25652;52.852;6.602;2024-01-30T10:37:59;10.70;;;9.60;;
39974;SDS011;25652;52.852;6.602;2024-01-30T10:40:27;10.77;;;9.60;;
39974;SDS011;25652;52.852;6.602;2024-01-30T10:42:53;13.18;;;9.30;;
39974;SDS011;25652;52.852;6.602;2024-01-30T10:45:20;11.10;;;9.32;;
39974;SDS011;25652;52.852;6.602;2024-01-30T10:47:48;11.35;;;9.57;;
39974;SDS011;25652;52.852;6.602;2024-01-30T10:50:15;14.80;;;9.73;;
39974;SDS011;25652;52.852;6.602;2024-01-30T10:52:41;10.07;;;9.03;;
39974;SDS011;25652;52.852;6.602;2024-01-30T10:55:07;10.13;;;9.13;;
39974;SDS011;25652;52.852;6.602;2024-01-30T10:57:34;11.80;;;9.82;;
39974;SDS011;25652;52.852;6.602;2024-01-30T11:00:00;11.15;;;8.77;;
39974;SDS011;25652;52.852;6.602;2024-01-30T11:02:28;10.48;;;9.25;;
39974;SDS011;25652;52.852;6.602;2024-01-30T11:04:56;13.65;;;9.95;;
39974;SDS011;25652;52.852;6.602;2024-01-30T11:07:24;12.23;;;9.30;;
39974;SDS011;25652;52.852;6.602;2024-01-30T11:09:59;10.15;;;9.15;;
39974;SDS011;25652;52.852;6.602;2024-01-30T11:12:26;9.93;;;8.80;;
39974;SDS011;25652;52.852;6.602;2024-01-30T11:15:02;11.70;;;9.13;;
39974;SDS011;25652;52.852;6.602;2024-01-30T11:17:32;11.18;;;9.32;;
39974;SDS011;25652;52.852;6.602;2024-01-30T11:20:20;10.45;;;9.15;;
39974;SDS011;25652;52.852;6.602;2024-01-30T11:22:47;12.15;;;8.80;;
39974;SDS011;25652;52.852;6.602;2024-01-30T11:25:15;9.48;;;8.35;;
39974;SDS011;25652;52.852;6.602;2024-01-30T11:27:42;11.63;;;8.70;;
39974;SDS011;25652;52.852;6.602;2024-01-30T11:30:08;10.30;;;8.88;;
39974;SDS011;25652;52.852;6.602;2024-01-30T11:32:34;11.23;;;9.25;;
39974;SDS011;25652;52.852;6.602;2024-01-30T11:35:00;10.98;;;8.60;;
39974;SDS011;25652;52.852;6.602;2024-01-30T11:37:27;10.55;;;8.88;;
39974;SDS011;25652;52.852;6.602;2024-01-30T11:39:55;9.27;;;8.38;;
39974;SDS011;25652;52.852;6.602;2024-01-30T11:42:23;9.52;;;8.55;;
39974;SDS011;25652;52.852;6.602;2024-01-30T11:44:49;11.43;;;9.05;;
39974;SDS011;25652;52.852;6.602;2024-01-30T11:47:14;9.73;;;8.70;;
39974;SDS011;25652;52.852;6.602;2024-01-30T11:49:40;11.50;;;9.18;;
39974;SDS011;25652;52.852;6.602;2024-01-30T11:52:06;11.52;;;9.13;;
39974;SDS011;25652;52.852;6.602;2024-01-30T11:54:32;11.18;;;8.75;;
39974;SDS011;25652;52.852;6.602;2024-01-30T11:56:57;10.00;;;8.93;;
39974;SDS011;25652;52.852;6.602;2024-01-30T11:59:23;10.60;;;9.03;;
39974;SDS011;25652;52.852;6.602;2024-01-30T12:01:48;10.32;;;8.68;;
39974;SDS011;25652;52.852;6.602;2024-01-30T12:04:16;12.68;;;8.77;;
39974;SDS011;25652;52.852;6.602;2024-01-30T12:06:41;12.23;;;8.90;;
39974;SDS011;25652;52.852;6.602;2024-01-30T12:09:07;9.43;;;8.48;;
39974;SDS011;25652;52.852;6.602;2024-01-30T12:11:44;10.93;;;8.80;;
39974;SDS011;25652;52.852;6.602;2024-01-30T12:14:13;10.10;;;8.90;;
39974;SDS011;25652;52.852;6.602;2024-01-30T12:16:39;10.10;;;8.52;;
39974;SDS011;25652;52.852;6.602;2024-01-30T12:19:05;10.27;;;8.57;;
39974;SDS011;25652;52.852;6.602;2024-01-30T12:21:30;9.85;;;8.85;;
39974;SDS011;25652;52.852;6.602;2024-01-30T12:23:56;10.83;;;9.00;;
39974;SDS011;25652;52.852;6.602;2024-01-30T12:26:22;10.47;;;8.43;;
39974;SDS011;25652;52.852;6.602;2024-01-30T12:28:48;12.40;;;8.95;;
39974;SDS011;25652;52.852;6.602;2024-01-30T12:31:14;12.30;;;8.88;;
39974;SDS011;25652;52.852;6.602;2024-01-30T12:33:39;11.27;;;9.57;;
39974;SDS011;25652;52.852;6.602;2024-01-30T12:36:05;10.60;;;8.50;;
39974;SDS011;25652;52.852;6.602;2024-01-30T12:38:31;11.75;;;8.93;;
39974;SDS011;25652;52.852;6.602;2024-01-30T12:40:56;11.77;;;8.68;;
39974;SDS011;25652;52.852;6.602;2024-01-30T12:43:22;10.47;;;8.93;;
39974;SDS011;25652;52.852;6.602;2024-01-30T12:45:49;14.25;;;8.80;;
39974;SDS011;25652;52.852;6.602;2024-01-30T12:48:15;13.10;;;8.30;;
39974;SDS011;25652;52.852;6.602;2024-01-30T12:50:40;14.73;;;8.63;;
39974;SDS011;25652;52.852;6.602;2024-01-30T12:53:06;10.98;;;8.13;;
39974;SDS011;25652;52.852;6.602;2024-01-30T12:55:32;9.40;;;7.72;;
39974;SDS011;25652;52.852;6.602;2024-01-30T12:57:57;12.07;;;7.57;;
39974;SDS011;25652;52.852;6.602;2024-01-30T13:00:22;13.60;;;7.90;;
39974;SDS011;25652;52.852;6.602;2024-01-30T13:02:48;10.63;;;7.37;;
39974;SDS011;25652;52.852;6.602;2024-01-30T13:05:13;11.60;;;7.70;;
39974;SDS011;25652;52.852;6.602;2024-01-30T13:07:39;9.60;;;7.03;;
39974;SDS011;25652;52.852;6.602;2024-01-30T13:10:05;10.57;;;6.87;;
39974;SDS011;25652;52.852;6.602;2024-01-30T13:12:30;10.37;;;6.70;;
39974;SDS011;25652;52.852;6.602;2024-01-30T13:14:56;10.73;;;6.50;;
39974;SDS011;25652;52.852;6.602;2024-01-30T13:17:21;9.10;;;6.27;;
39974;SDS011;25652;52.852;6.602;2024-01-30T13:19:47;8.23;;;6.17;;
39974;SDS011;25652;52.852;6.602;2024-01-30T13:22:12;8.50;;;6.00;;
39974;SDS011;25652;52.852;6.602;2024-01-30T13:24:38;9.17;;;5.83;;
39974;SDS011;25652;52.852;6.602;2024-01-30T13:27:03;7.82;;;5.75;;
39974;SDS011;25652;52.852;6.602;2024-01-30T13:29:29;8.37;;;5.90;;
39974;SDS011;25652;52.852;6.602;2024-01-30T13:31:54;7.93;;;5.53;;
39974;SDS011;25652;52.852;6.602;2024-01-30T13:34:20;7.63;;;5.28;;
39974;SDS011;25652;52.852;6.602;2024-01-30T13:36:45;8.33;;;5.13;;
39974;SDS011;25652;52.852;6.602;2024-01-30T13:39:11;7.68;;;5.30;;
39974;SDS011;25652;52.852;6.602;2024-01-30T13:41:36;8.43;;;5.30;;
39974;SDS011;25652;52.852;6.602;2024-01-30T13:44:02;7.77;;;4.77;;
39974;SDS011;25652;52.852;6.602;2024-01-30T13:46:27;6.83;;;4.47;;
39974;SDS011;25652;52.852;6.602;2024-01-30T13:48:53;6.90;;;4.83;;
39974;SDS011;25652;52.852;6.602;2024-01-30T13:51:18;7.75;;;4.63;;
39974;SDS011;25652;52.852;6.602;2024-01-30T13:53:43;6.60;;;4.10;;
39974;SDS011;25652;52.852;6.602;2024-01-30T13:56:09;6.93;;;4.60;;
39974;SDS011;25652;52.852;6.602;2024-01-30T13:58:34;7.73;;;4.37;;
39974;SDS011;25652;52.852;6.602;2024-01-30T14:01:00;6.80;;;4.20;;
39974;SDS011;25652;52.852;6.602;2024-01-30T14:03:25;5.73;;;4.03;;
39974;SDS011;25652;52.852;6.602;2024-01-30T14:05:51;7.83;;;4.13;;
39974;SDS011;25652;52.852;6.602;2024-01-30T14:08:16;6.28;;;3.92;;
39974;SDS011;25652;52.852;6.602;2024-01-30T14:10:42;5.83;;;3.80;;
39974;SDS011;25652;52.852;6.602;2024-01-30T14:13:07;6.00;;;3.87;;
39974;SDS011;25652;52.852;6.602;2024-01-30T14:15:33;6.40;;;3.63;;
39974;SDS011;25652;52.852;6.602;2024-01-30T14:17:59;6.00;;;3.53;;
39974;SDS011;25652;52.852;6.602;2024-01-30T14:20:24;6.80;;;3.67;;
39974;SDS011;25652;52.852;6.602;2024-01-30T14:22:50;5.53;;;3.33;;
39974;SDS011;25652;52.852;6.602;2024-01-30T14:25:15;4.27;;;3.23;;